Alva — SDRG — position and weather

sailwx.info

Track history (hours):
 
Tides and Currents Weather Stations Pressure Air Temp Water Temp Dewpoint Dewpoint Depression Visibility Wind Speed Wind Dir Waves Ship Positions

Alva

Last reported at 2017-Nov-25 12:37 UTC. Time now 2017-Dec-17 19:28 UTC.
Position N 28°31' W 016°00'.
Warning: this ship's position is 22 days out of date.

Length 55 m; draft 3 m.

Type: Sailing vessel. MMSI: 266042000.

Date/timePositionNaut miles runAvg speedWind from/ knotsBaromVisibWave heightAir tempDewpointWater temp
2017-Nov-25 12:37N 28°31' W 016°00'2 4.8
2017-Nov-25 12:09N 28°33' W 016°02'1 4.9
2017-Nov-25 12:00N 28°33' W 016°02'8 4.6
2017-Nov-25 10:20N 28°35' W 015°53'9 5.2
2017-Nov-25 08:35N 28°39' W 015°44'2 6.4
2017-Nov-25 08:21N 28°39' W 015°42'2 6.7
2017-Nov-25 08:00N 28°40' W 015°40'3 6.6
2017-Nov-25 07:30N 28°40' W 015°36'4 7.4
2017-Nov-25 07:00N 28°41' W 015°32'4 7.3
2017-Nov-25 06:30N 28°42' W 015°28'3 7.0
2017-Nov-25 06:00N 28°42' W 015°24'3 6.2
2017-Nov-25 05:30N 28°42' W 015°20'3 6.1
2017-Nov-25 05:00N 28°42' W 015°17'3 6.2
2017-Nov-25 04:30N 28°42' W 015°13'3 5.8
2017-Nov-25 04:00N 28°43' W 015°10'3 5.0
2017-Nov-25 03:30N 28°43' W 015°07'2 4.8
2017-Nov-25 03:00N 28°43' W 015°04'2 4.8
2017-Nov-25 02:30N 28°43' W 015°02'2 4.7
2017-Nov-25 02:00N 28°44' W 014°59'1 1.8
2017-Nov-25 01:30N 28°44' W 014°58'1 1.5
2017-Nov-25 01:00N 28°44' W 014°57'1 2.7
2017-Nov-25 00:30N 28°45' W 014°56'1 2.7
2017-Nov-25 00:01N 28°45' W 014°54'2 3.5
2017-Nov-24 23:30N 28°45' W 014°52'2 3.5
2017-Nov-24 23:00N 28°46' W 014°50'1 3.0
2017-Nov-24 22:30N 28°46' W 014°49'2 3.4
2017-Nov-24 22:00N 28°46' W 014°47'1 2.6
2017-Nov-24 21:30N 28°46' W 014°45'1 2.8
2017-Nov-24 21:00N 28°47' W 014°44'1 2.7
2017-Nov-24 20:30N 28°47' W 014°42'1 2.4
2017-Nov-24 20:00N 28°47' W 014°41'1 2.2
2017-Nov-24 19:30N 28°47' W 014°40'2 3.7
2017-Nov-24 19:00N 28°47' W 014°38'2 3.9
2017-Nov-24 18:30N 28°47' W 014°35'2 3.3
2017-Nov-24 18:00N 28°47' W 014°34'1 2.3
2017-Nov-24 17:30N 28°47' W 014°32'1 2.5
2017-Nov-24 17:00N 28°47' W 014°31'2 3.4
2017-Nov-24 16:30N 28°47' W 014°29'2 3.6
2017-Nov-24 16:00N 28°47' W 014°27'2 4.1
2017-Nov-24 15:30N 28°47' W 014°25'2 4.6
2017-Nov-24 15:00N 28°48' W 014°22'3 6.6
2017-Nov-24 14:30N 28°48' W 014°18'3 6.7
2017-Nov-24 13:59N 28°48' W 014°14'3 6.7
2017-Nov-24 13:29N 28°49' W 014°11'3 6.5
2017-Nov-24 12:58N 28°49' W 014°07'16 4.5
2017-Nov-24 09:29N 28°51' W 013°49'0 0.0
2017-Nov-24 08:59N 28°51' W 013°49'0 0.0
2017-Nov-24 08:29N 28°51' W 013°49'0 0.0
2017-Nov-24 07:59N 28°51' W 013°49'0 0.0
2017-Nov-24 07:29N 28°51' W 013°49'0 0.0
2017-Nov-24 06:59N 28°51' W 013°49'0 0.0
2017-Nov-24 06:29N 28°51' W 013°49'0 0.0
2017-Nov-24 05:05N 28°51' W 013°49'0 0.0
2017-Nov-24 04:50N 28°51' W 013°49'0 0.0
2017-Nov-24 04:29N 28°51' W 013°49'0 0.0
2017-Nov-24 03:50N 28°51' W 013°49'0 0.0
2017-Nov-24 02:38N 28°51' W 013°49'0 0.0
2017-Nov-24 02:23N 28°51' W 013°49'0 0.0
2017-Nov-24 01:53N 28°51' W 013°49'0 0.0
2017-Nov-24 01:20N 28°51' W 013°49'0 0.0
2017-Nov-24 00:53N 28°51' W 013°49'0 0.0
2017-Nov-24 00:23N 28°51' W 013°49'0 0.0
2017-Nov-23 22:26N 28°51' W 013°49'0 0.0
2017-Nov-23 21:56N 28°51' W 013°49'0 0.0
2017-Nov-23 21:26N 28°51' W 013°49'0 0.0
2017-Nov-23 20:59N 28°51' W 013°49'0 0.0
2017-Nov-23 20:29N 28°51' W 013°49'0 0.0
2017-Nov-23 18:59N 28°51' W 013°49'0 0.0
2017-Nov-23 18:29N 28°51' W 013°49'0 0.0
2017-Nov-23 16:44N 28°51' W 013°49'0 0.0
2017-Nov-23 02:44N 28°51' W 013°49'0 0.0
2017-Nov-22 21:47N 28°51' W 013°49'0 0.0
2017-Nov-22 21:23N 28°51' W 013°49'0 0.0
2017-Nov-22 20:47N 28°51' W 013°49'0 0.0
2017-Nov-22 20:23N 28°51' W 013°49'  
Track history (hours):
 
Tides and Currents Weather Stations Pressure Air Temp Water Temp Dewpoint Dewpoint Depression Visibility Wind Speed Wind Dir Waves Ship Positions

Alva

Last reported at 2017-Nov-25 12:37 UTC. Time now 2017-Dec-17 19:28 UTC.
Position N 28°31' W 016°00'.
Warning: this ship's position is 22 days out of date.

Length 55 m; draft 3 m.

Type: Sailing vessel. MMSI: 266042000.

Date/timePositionNaut miles runAvg speedWind from/ knotsBaromVisibWave heightAir tempDewpointWater temp
2017-Nov-25 12:37N 28°31' W 016°00'2 4.8
2017-Nov-25 12:09N 28°33' W 016°02'1 4.9
2017-Nov-25 12:00N 28°33' W 016°02'8 4.6
2017-Nov-25 10:20N 28°35' W 015°53'9 5.2
2017-Nov-25 08:35N 28°39' W 015°44'2 6.4
2017-Nov-25 08:21N 28°39' W 015°42'2 6.7
2017-Nov-25 08:00N 28°40' W 015°40'3 6.6
2017-Nov-25 07:30N 28°40' W 015°36'4 7.4
2017-Nov-25 07:00N 28°41' W 015°32'4 7.3
2017-Nov-25 06:30N 28°42' W 015°28'3 7.0
2017-Nov-25 06:00N 28°42' W 015°24'3 6.2
2017-Nov-25 05:30N 28°42' W 015°20'3 6.1
2017-Nov-25 05:00N 28°42' W 015°17'3 6.2
2017-Nov-25 04:30N 28°42' W 015°13'3 5.8
2017-Nov-25 04:00N 28°43' W 015°10'3 5.0
2017-Nov-25 03:30N 28°43' W 015°07'2 4.8
2017-Nov-25 03:00N 28°43' W 015°04'2 4.8
2017-Nov-25 02:30N 28°43' W 015°02'2 4.7
2017-Nov-25 02:00N 28°44' W 014°59'1 1.8
2017-Nov-25 01:30N 28°44' W 014°58'1 1.5
2017-Nov-25 01:00N 28°44' W 014°57'1 2.7
2017-Nov-25 00:30N 28°45' W 014°56'1 2.7
2017-Nov-25 00:01N 28°45' W 014°54'2 3.5
2017-Nov-24 23:30N 28°45' W 014°52'2 3.5
2017-Nov-24 23:00N 28°46' W 014°50'1 3.0
2017-Nov-24 22:30N 28°46' W 014°49'2 3.4
2017-Nov-24 22:00N 28°46' W 014°47'1 2.6
2017-Nov-24 21:30N 28°46' W 014°45'1 2.8
2017-Nov-24 21:00N 28°47' W 014°44'1 2.7
2017-Nov-24 20:30N 28°47' W 014°42'1 2.4
2017-Nov-24 20:00N 28°47' W 014°41'1 2.2
2017-Nov-24 19:30N 28°47' W 014°40'2 3.7
2017-Nov-24 19:00N 28°47' W 014°38'2 3.9
2017-Nov-24 18:30N 28°47' W 014°35'2 3.3
2017-Nov-24 18:00N 28°47' W 014°34'1 2.3
2017-Nov-24 17:30N 28°47' W 014°32'1 2.5
2017-Nov-24 17:00N 28°47' W 014°31'2 3.4
2017-Nov-24 16:30N 28°47' W 014°29'2 3.6
2017-Nov-24 16:00N 28°47' W 014°27'2 4.1
2017-Nov-24 15:30N 28°47' W 014°25'2 4.6
2017-Nov-24 15:00N 28°48' W 014°22'3 6.6
2017-Nov-24 14:30N 28°48' W 014°18'3 6.7
2017-Nov-24 13:59N 28°48' W 014°14'3 6.7
2017-Nov-24 13:29N 28°49' W 014°11'3 6.5
2017-Nov-24 12:58N 28°49' W 014°07'16 4.5
2017-Nov-24 09:29N 28°51' W 013°49'0 0.0
2017-Nov-24 08:59N 28°51' W 013°49'0 0.0
2017-Nov-24 08:29N 28°51' W 013°49'0 0.0
2017-Nov-24 07:59N 28°51' W 013°49'0 0.0
2017-Nov-24 07:29N 28°51' W 013°49'0 0.0
2017-Nov-24 06:59N 28°51' W 013°49'0 0.0
2017-Nov-24 06:29N 28°51' W 013°49'0 0.0
2017-Nov-24 05:05N 28°51' W 013°49'0 0.0
2017-Nov-24 04:50N 28°51' W 013°49'0 0.0
2017-Nov-24 04:29N 28°51' W 013°49'0 0.0
2017-Nov-24 03:50N 28°51' W 013°49'0 0.0
2017-Nov-24 02:38N 28°51' W 013°49'0 0.0
2017-Nov-24 02:23N 28°51' W 013°49'0 0.0
2017-Nov-24 01:53N 28°51' W 013°49'0 0.0
2017-Nov-24 01:20N 28°51' W 013°49'0 0.0
2017-Nov-24 00:53N 28°51' W 013°49'0 0.0
2017-Nov-24 00:23N 28°51' W 013°49'0 0.0
2017-Nov-23 22:26N 28°51' W 013°49'0 0.0
2017-Nov-23 21:56N 28°51' W 013°49'0 0.0
2017-Nov-23 21:26N 28°51' W 013°49'0 0.0
2017-Nov-23 20:59N 28°51' W 013°49'0 0.0
2017-Nov-23 20:29N 28°51' W 013°49'0 0.0
2017-Nov-23 18:59N 28°51' W 013°49'0 0.0
2017-Nov-23 18:29N 28°51' W 013°49'0 0.0
2017-Nov-23 16:44N 28°51' W 013°49'0 0.0
2017-Nov-23 02:44N 28°51' W 013°49'0 0.0
2017-Nov-22 21:47N 28°51' W 013°49'0 0.0
2017-Nov-22 21:23N 28°51' W 013°49'0 0.0
2017-Nov-22 20:47N 28°51' W 013°49'0 0.0
2017-Nov-22 20:23N 28°51' W 013°49'  

Dump ship's entire track history